createdAt,value
2022-11-08T00:01:34.489Z,34.35
2022-11-08T00:04:00.791Z,34.33
2022-11-08T00:06:27.134Z,34.32
2022-11-08T00:08:53.475Z,34.35
2022-11-08T00:11:19.823Z,34.34
2022-11-08T00:13:46.168Z,34.33
2022-11-08T00:16:12.510Z,34.36
2022-11-08T00:18:38.853Z,34.35
2022-11-08T00:21:05.191Z,34.34
2022-11-08T00:23:31.530Z,34.35
2022-11-08T00:25:57.870Z,34.38
2022-11-08T00:28:24.222Z,34.39
2022-11-08T00:30:50.558Z,34.40
2022-11-08T00:33:16.896Z,34.37
2022-11-08T00:35:43.249Z,34.38
2022-11-08T00:38:09.627Z,34.42
2022-11-08T00:40:35.974Z,34.40
2022-11-08T00:43:02.322Z,34.46
2022-11-08T00:45:29.689Z,34.46
2022-11-08T00:47:55.051Z,34.55
2022-11-08T00:50:21.406Z,34.52
2022-11-08T00:52:47.742Z,34.51
2022-11-08T00:55:14.088Z,34.49
2022-11-08T00:57:58.367Z,34.50
2022-11-08T01:00:06.802Z,34.49
2022-11-08T01:02:33.207Z,34.49
2022-11-08T01:04:59.493Z,34.54
2022-11-08T01:07:25.829Z,34.48
2022-11-08T01:09:52.171Z,34.45
2022-11-08T01:12:18.514Z,34.44
2022-11-08T01:14:44.864Z,34.47
2022-11-08T01:17:11.197Z,34.47
2022-11-08T01:19:37.565Z,34.45
2022-11-08T01:22:03.905Z,34.45
2022-11-08T01:24:30.291Z,34.46
2022-11-08T01:26:56.630Z,34.48
2022-11-08T01:29:23.004Z,34.48
2022-11-08T01:31:49.351Z,34.50
2022-11-08T01:34:15.704Z,34.50
2022-11-08T01:36:42.049Z,34.52
2022-11-08T01:39:08.402Z,34.51
2022-11-08T01:41:34.735Z,34.50
2022-11-08T01:44:01.079Z,34.51
2022-11-08T01:46:27.424Z,34.53
2022-11-08T01:48:53.776Z,34.53
2022-11-08T01:51:20.127Z,34.52
2022-11-08T01:53:46.483Z,34.54
2022-11-08T01:56:12.820Z,34.55
2022-11-08T01:58:39.178Z,34.55
2022-11-08T02:03:50.805Z,34.56
2022-11-08T02:06:17.304Z,34.60
2022-11-08T02:08:43.653Z,34.58
2022-11-08T02:11:10.000Z,34.62
2022-11-08T02:13:36.355Z,34.60
2022-11-08T02:16:02.695Z,34.62
2022-11-08T02:18:29.043Z,34.59
2022-11-08T02:20:55.385Z,34.61
2022-11-08T02:23:21.728Z,34.65
2022-11-08T02:25:48.072Z,34.62
2022-11-08T02:28:14.589Z,34.62
2022-11-08T02:30:40.838Z,34.66
2022-11-08T02:33:07.253Z,34.67
2022-11-08T02:35:33.600Z,34.64
2022-11-08T02:37:59.951Z,34.67
2022-11-08T02:40:26.303Z,34.68
2022-11-08T02:42:52.682Z,34.67
2022-11-08T02:45:19.028Z,34.67
2022-11-08T02:47:45.380Z,34.68
2022-11-08T02:50:11.729Z,34.60
2022-11-08T02:52:38.069Z,34.61
2022-11-08T02:55:04.406Z,34.62
2022-11-08T02:57:30.747Z,34.61
2022-11-08T02:59:57.099Z,34.62
2022-11-08T03:02:23.552Z,34.62
2022-11-08T03:04:49.795Z,34.59
2022-11-08T03:07:20.785Z,34.52
2022-11-08T03:09:42.501Z,34.48
2022-11-08T03:12:08.856Z,34.49
2022-11-08T03:14:35.199Z,34.48
2022-11-08T03:17:01.547Z,34.45
2022-11-08T03:19:27.921Z,34.40
2022-11-08T03:21:54.260Z,34.33
2022-11-08T03:24:20.610Z,34.28
2022-11-08T03:26:46.983Z,34.24
2022-11-08T03:29:13.315Z,34.23
2022-11-08T03:31:39.672Z,34.17
2022-11-08T03:34:06.011Z,34.13
2022-11-08T03:36:32.358Z,34.13
2022-11-08T03:38:58.726Z,34.08
2022-11-08T03:41:25.045Z,34.05
2022-11-08T03:43:51.391Z,34.01
2022-11-08T03:46:17.733Z,34.00
2022-11-08T03:48:44.079Z,33.99
2022-11-08T03:51:10.430Z,33.94
2022-11-08T03:53:36.768Z,33.92
2022-11-08T03:56:03.121Z,33.91
2022-11-08T03:58:29.465Z,33.89
2022-11-08T04:00:55.877Z,33.83
2022-11-08T04:03:22.193Z,33.84
2022-11-08T04:05:48.533Z,33.83
2022-11-08T04:08:15.168Z,33.81
2022-11-08T04:10:41.221Z,33.79
2022-11-08T04:13:07.568Z,33.78
2022-11-08T04:15:33.922Z,33.73
2022-11-08T04:18:00.269Z,33.74
2022-11-08T04:20:26.646Z,33.74
2022-11-08T04:22:52.994Z,33.75
2022-11-08T04:25:19.498Z,33.81
2022-11-08T04:27:45.847Z,33.85
2022-11-08T04:30:12.196Z,33.84
2022-11-08T04:32:38.549Z,33.87
2022-11-08T04:35:04.897Z,33.87
2022-11-08T04:37:31.234Z,33.87
2022-11-08T04:39:57.585Z,33.87
2022-11-08T04:42:23.934Z,33.86
2022-11-08T04:44:50.289Z,33.88
2022-11-08T04:47:16.628Z,33.88
2022-11-08T04:49:42.977Z,33.90
2022-11-08T04:52:09.321Z,33.90
2022-11-08T04:54:35.681Z,33.91
2022-11-08T04:57:02.061Z,33.91
2022-11-08T04:59:28.411Z,33.88
2022-11-08T05:01:54.905Z,33.88
2022-11-08T05:04:21.124Z,33.84
2022-11-08T05:06:47.463Z,33.88
2022-11-08T05:09:13.820Z,33.86
2022-11-08T05:11:40.168Z,33.85
2022-11-08T05:14:06.509Z,33.83
2022-11-08T05:16:32.853Z,33.82
2022-11-08T05:18:59.204Z,33.83
2022-11-08T05:21:25.552Z,33.83
2022-11-08T05:23:51.936Z,33.81
2022-11-08T05:26:18.271Z,34.28
2022-11-08T05:28:44.613Z,34.42
2022-11-08T05:31:10.961Z,34.36
2022-11-08T05:33:37.322Z,34.22
2022-11-08T05:36:05.986Z,34.07
2022-11-08T05:38:30.021Z,33.97
2022-11-08T05:40:56.374Z,33.94
2022-11-08T05:43:22.722Z,33.91
2022-11-08T05:45:49.064Z,33.92
2022-11-08T05:48:15.667Z,33.92
2022-11-08T05:50:41.751Z,33.89
2022-11-08T05:53:08.106Z,33.90
2022-11-08T05:55:34.730Z,33.88
2022-11-08T05:58:01.114Z,33.84
2022-11-08T06:00:27.495Z,33.86
2022-11-08T06:02:53.870Z,33.84
2022-11-08T06:05:20.183Z,33.86
2022-11-08T06:07:46.541Z,33.82
2022-11-08T06:10:12.887Z,33.86
2022-11-08T06:12:39.287Z,33.80
2022-11-08T06:15:05.630Z,33.86
2022-11-08T06:17:31.977Z,33.88
2022-11-08T06:19:58.345Z,33.81
2022-11-08T06:22:24.694Z,33.81
2022-11-08T06:24:51.047Z,33.78
2022-11-08T06:27:17.394Z,33.84
2022-11-08T06:29:43.739Z,33.84
2022-11-08T06:32:10.102Z,33.84
2022-11-08T06:34:36.486Z,33.80
2022-11-08T06:37:02.834Z,33.84
2022-11-08T06:39:29.170Z,33.85
2022-11-08T06:41:55.670Z,33.87
2022-11-08T06:44:22.056Z,33.87
2022-11-08T06:46:48.466Z,33.90
2022-11-08T06:49:14.819Z,33.92
2022-11-08T06:51:41.199Z,33.95
2022-11-08T06:54:08.803Z,34.07
2022-11-08T06:56:33.924Z,34.22
2022-11-08T06:59:00.274Z,34.33
2022-11-08T07:01:26.752Z,34.36
2022-11-08T07:03:52.979Z,34.44
2022-11-08T07:06:19.320Z,34.50
2022-11-08T07:08:45.669Z,34.53
2022-11-08T07:11:12.027Z,34.56
2022-11-08T07:13:38.365Z,34.60
2022-11-08T07:16:04.715Z,34.63
2022-11-08T07:18:31.130Z,34.58
2022-11-08T07:20:57.415Z,34.59
2022-11-08T07:23:23.891Z,34.50
2022-11-08T07:25:51.058Z,34.57
2022-11-08T07:28:16.466Z,34.64
2022-11-08T07:30:42.821Z,34.76
2022-11-08T07:33:09.181Z,34.76
2022-11-08T07:35:35.525Z,34.71
2022-11-08T07:38:01.896Z,34.68
2022-11-08T07:40:28.302Z,34.73
2022-11-08T07:43:12.981Z,34.73
2022-11-08T07:45:21.001Z,34.75
2022-11-08T07:47:47.349Z,34.79
2022-11-08T07:50:17.698Z,34.87
2022-11-08T07:52:40.048Z,34.92
2022-11-08T07:55:06.397Z,34.91
2022-11-08T07:57:32.757Z,34.85
2022-11-08T08:00:02.368Z,34.93
2022-11-08T08:02:25.518Z,34.87
2022-11-08T08:04:51.852Z,34.74
2022-11-08T08:07:18.188Z,34.75
2022-11-08T08:09:44.604Z,34.75
2022-11-08T08:12:14.578Z,34.72
2022-11-08T08:14:39.739Z,34.72
2022-11-08T08:17:06.096Z,34.71
2022-11-08T08:19:32.473Z,34.66
2022-11-08T08:21:58.863Z,34.65
2022-11-08T08:24:25.202Z,34.65
2022-11-08T08:26:51.574Z,34.63
2022-11-08T08:29:17.918Z,34.63
2022-11-08T08:31:44.304Z,34.70
2022-11-08T08:34:10.667Z,34.74
2022-11-08T08:36:37.032Z,34.78
2022-11-08T08:39:03.386Z,34.76
2022-11-08T08:41:29.759Z,34.80
2022-11-08T08:43:56.204Z,34.77
2022-11-08T08:46:22.537Z,34.77
2022-11-08T08:48:48.948Z,34.74
2022-11-08T08:51:15.311Z,34.76
2022-11-08T08:53:41.705Z,34.78
2022-11-08T08:56:08.066Z,34.78
2022-11-08T08:58:34.632Z,34.85
2022-11-08T09:03:27.133Z,34.78
2022-11-08T09:05:53.523Z,34.75
2022-11-08T09:08:19.858Z,34.81
2022-11-08T09:10:46.262Z,34.87
2022-11-08T09:13:12.630Z,34.85
2022-11-08T09:15:39.004Z,34.81
2022-11-08T09:18:05.405Z,34.87
2022-11-08T09:20:31.772Z,34.92
2022-11-08T09:22:58.118Z,34.88
2022-11-08T09:25:24.478Z,34.87
2022-11-08T09:27:50.835Z,34.94
2022-11-08T09:30:17.193Z,34.99
2022-11-08T09:33:00.450Z,35.02
2022-11-08T09:35:09.962Z,35.07
2022-11-08T09:37:36.307Z,35.00
2022-11-08T09:40:02.681Z,35.06
2022-11-08T09:42:29.014Z,35.02
2022-11-08T09:44:55.376Z,34.90
2022-11-08T09:47:21.740Z,34.85
2022-11-08T09:49:48.119Z,34.81
2022-11-08T09:52:14.533Z,34.78
2022-11-08T09:54:40.895Z,34.75
2022-11-08T09:57:07.312Z,34.75
2022-11-08T09:59:33.685Z,34.72
2022-11-08T10:02:00.068Z,34.67
2022-11-08T10:04:26.422Z,34.66
2022-11-08T10:06:54.010Z,34.63
2022-11-08T10:09:19.125Z,34.66
2022-11-08T10:11:45.460Z,34.61
2022-11-08T10:14:11.816Z,34.58
2022-11-08T10:16:38.158Z,34.56
2022-11-08T10:19:04.515Z,34.53
2022-11-08T10:21:30.859Z,34.53
2022-11-08T10:23:57.214Z,34.53
2022-11-08T10:26:27.077Z,34.56
2022-11-08T10:28:49.928Z,34.57
2022-11-08T10:31:16.270Z,34.58
2022-11-08T10:33:42.620Z,34.61
2022-11-08T10:36:08.974Z,34.60
2022-11-08T10:38:35.402Z,34.62
2022-11-08T10:41:01.752Z,34.60
2022-11-08T10:43:28.107Z,34.57
2022-11-08T10:45:54.560Z,34.60
2022-11-08T10:48:21.089Z,34.62
2022-11-08T10:50:47.260Z,34.45
2022-11-08T10:53:13.614Z,34.33
2022-11-08T10:55:39.963Z,34.28
2022-11-08T10:58:06.318Z,34.20
2022-11-08T11:00:32.663Z,34.23
2022-11-08T11:02:59.082Z,34.23
2022-11-08T11:05:25.428Z,34.24
2022-11-08T11:07:51.760Z,34.27
2022-11-08T11:10:18.109Z,34.23
2022-11-08T11:12:44.485Z,34.20
2022-11-08T11:15:10.818Z,34.13
2022-11-08T11:17:39.970Z,34.01
2022-11-08T11:20:03.515Z,33.92
2022-11-08T11:22:29.856Z,33.75
2022-11-08T11:24:56.200Z,33.65
2022-11-08T11:27:22.565Z,33.64
2022-11-08T11:29:48.905Z,33.69
2022-11-08T11:32:15.259Z,33.71
2022-11-08T11:34:41.605Z,33.57
2022-11-08T11:37:07.957Z,33.57
2022-11-08T11:39:34.302Z,33.43
2022-11-08T11:42:17.810Z,33.55
2022-11-08T11:44:27.128Z,33.25
2022-11-08T11:46:53.491Z,33.39
2022-11-08T11:49:19.840Z,33.37
2022-11-08T11:51:46.259Z,33.41
2022-11-08T11:54:12.553Z,33.65
2022-11-08T11:56:38.891Z,33.84
2022-11-08T11:59:05.262Z,34.00
2022-11-08T12:01:31.686Z,34.13
2022-11-08T12:03:57.992Z,34.37
2022-11-08T12:06:24.342Z,34.27
2022-11-08T12:08:50.706Z,34.22
2022-11-08T12:11:17.082Z,34.29
2022-11-08T12:13:43.462Z,34.17
2022-11-08T12:16:09.803Z,34.15
2022-11-08T12:18:43.067Z,34.24
2022-11-08T12:21:02.611Z,34.23
2022-11-08T12:23:28.984Z,34.19
2022-11-08T12:25:55.357Z,34.18
2022-11-08T12:28:21.710Z,34.16
2022-11-08T12:30:48.059Z,34.20
2022-11-08T12:33:14.402Z,34.14
2022-11-08T12:35:40.744Z,34.15
2022-11-08T12:38:07.158Z,34.16
2022-11-08T12:40:33.510Z,34.18
2022-11-08T12:42:59.850Z,34.13
2022-11-08T12:45:26.200Z,34.15
2022-11-08T12:47:52.585Z,34.17
2022-11-08T12:50:18.969Z,34.10
2022-11-08T12:52:45.271Z,34.10
2022-11-08T12:55:11.623Z,34.12
2022-11-08T12:57:39.076Z,34.13
2022-11-08T13:00:04.316Z,34.12
2022-11-08T13:02:30.652Z,34.09
2022-11-08T13:04:56.996Z,34.10
2022-11-08T13:07:23.344Z,34.10
2022-11-08T13:09:49.929Z,34.13
2022-11-08T13:12:16.273Z,34.17
2022-11-08T13:14:42.613Z,34.12
2022-11-08T13:17:08.960Z,34.20
2022-11-08T13:19:35.366Z,34.30
2022-11-08T13:22:01.789Z,34.28
2022-11-08T13:24:43.793Z,34.33
2022-11-08T13:26:59.258Z,34.37
2022-11-08T13:29:20.876Z,34.57
2022-11-08T13:31:47.212Z,34.74
2022-11-08T13:34:13.567Z,34.71
2022-11-08T13:36:39.901Z,34.81
2022-11-08T13:39:06.244Z,34.54
2022-11-08T13:41:32.591Z,34.39
2022-11-08T13:43:58.954Z,34.59
2022-11-08T13:46:25.290Z,34.54
2022-11-08T13:48:51.642Z,34.43
2022-11-08T13:51:17.996Z,34.43
2022-11-08T13:53:44.339Z,34.39
2022-11-08T13:56:10.679Z,34.32
2022-11-08T13:58:37.032Z,34.37
2022-11-08T14:01:03.463Z,34.33
2022-11-08T14:03:29.760Z,34.33
2022-11-08T14:05:56.100Z,34.39
2022-11-08T14:08:22.466Z,34.14
2022-11-08T14:10:48.798Z,34.13
2022-11-08T14:13:15.331Z,34.10
2022-11-08T14:15:41.498Z,33.78
2022-11-08T14:18:07.853Z,34.03
2022-11-08T14:20:34.203Z,33.94
2022-11-08T14:23:00.611Z,33.80
2022-11-08T14:25:26.957Z,33.78
2022-11-08T14:27:53.360Z,33.83
2022-11-08T14:30:19.709Z,33.88
2022-11-08T14:32:46.041Z,33.88
2022-11-08T14:35:12.388Z,33.84
2022-11-08T14:37:38.768Z,33.91
2022-11-08T14:40:05.108Z,34.00
2022-11-08T14:42:31.447Z,34.10
2022-11-08T14:44:57.793Z,34.41
2022-11-08T14:47:24.144Z,34.39
2022-11-08T14:49:51.611Z,34.38
2022-11-08T14:52:16.889Z,34.41
2022-11-08T14:54:43.173Z,34.40
2022-11-08T14:57:09.521Z,34.29
2022-11-08T14:59:35.862Z,34.27
2022-11-08T15:02:02.220Z,34.19
2022-11-08T15:04:28.565Z,34.21
2022-11-08T15:06:54.981Z,34.33
2022-11-08T15:09:21.289Z,34.38
2022-11-08T15:11:52.480Z,34.34
2022-11-08T15:14:13.985Z,34.27
2022-11-08T15:16:40.327Z,34.17
2022-11-08T15:19:06.666Z,33.91
2022-11-08T15:21:33.068Z,33.89
2022-11-08T15:23:59.506Z,33.81
2022-11-08T15:26:28.433Z,33.82
2022-11-08T15:28:54.817Z,33.78
2022-11-08T15:31:21.154Z,33.71
2022-11-08T15:33:47.511Z,33.63
2022-11-08T15:36:13.857Z,33.69
2022-11-08T15:38:40.193Z,33.61
2022-11-08T15:41:06.548Z,33.52
2022-11-08T15:43:32.886Z,33.62
2022-11-08T15:45:59.337Z,33.60
2022-11-08T15:48:25.606Z,33.62
2022-11-08T15:50:51.954Z,33.70
2022-11-08T15:53:18.310Z,33.69
2022-11-08T15:55:44.654Z,33.64
2022-11-08T15:58:11.001Z,33.75
2022-11-08T16:00:37.354Z,33.75
2022-11-08T16:03:03.696Z,33.77
2022-11-08T16:05:30.035Z,33.78
2022-11-08T16:07:56.381Z,33.78
2022-11-08T16:10:22.730Z,33.76
2022-11-08T16:12:49.067Z,33.75
2022-11-08T16:15:15.421Z,33.65
2022-11-08T16:17:41.774Z,33.67
2022-11-08T16:20:08.118Z,33.75
2022-11-08T16:22:34.462Z,33.71
2022-11-08T16:25:00.819Z,33.63
2022-11-08T16:27:27.165Z,33.65
2022-11-08T16:29:53.537Z,33.56
2022-11-08T16:32:19.873Z,33.49
2022-11-08T16:34:46.237Z,33.49
2022-11-08T16:37:12.577Z,33.48
2022-11-08T16:39:38.913Z,33.37
2022-11-08T16:42:05.256Z,33.35
2022-11-08T16:44:31.597Z,33.31
2022-11-08T16:46:57.928Z,33.26
2022-11-08T16:49:24.278Z,33.20
2022-11-08T16:51:50.621Z,33.12
2022-11-08T16:54:16.962Z,33.06
2022-11-08T16:56:43.307Z,33.05
2022-11-08T16:59:10.006Z,32.99
2022-11-08T17:01:36.377Z,32.88
2022-11-08T17:04:02.772Z,32.84
2022-11-08T17:06:29.166Z,32.79
2022-11-08T17:08:55.483Z,32.78
2022-11-08T17:11:21.822Z,32.75
2022-11-08T17:13:48.167Z,32.72
2022-11-08T17:16:14.500Z,32.63
2022-11-08T17:18:40.842Z,32.64
2022-11-08T17:21:23.242Z,32.61
2022-11-08T17:23:33.534Z,32.57
2022-11-08T17:25:59.871Z,32.57
2022-11-08T17:28:26.214Z,32.51
2022-11-08T17:30:52.553Z,32.50
2022-11-08T17:33:19.211Z,32.47
2022-11-08T17:35:45.240Z,32.44
2022-11-08T17:38:11.831Z,32.42
2022-11-08T17:40:38.169Z,32.42
2022-11-08T17:43:04.512Z,32.35
2022-11-08T17:45:30.855Z,32.37
2022-11-08T17:47:57.201Z,32.37
2022-11-08T17:50:23.544Z,32.36
2022-11-08T17:52:49.887Z,32.33
2022-11-08T17:55:16.217Z,32.30
2022-11-08T17:57:42.563Z,32.30
2022-11-08T18:00:11.158Z,32.28
2022-11-08T18:02:35.308Z,32.28
2022-11-08T18:05:01.612Z,32.26
2022-11-08T18:07:27.951Z,32.27
2022-11-08T18:09:54.302Z,32.25
2022-11-08T18:12:20.678Z,32.20
2022-11-08T18:14:47.055Z,32.17
2022-11-08T18:17:13.649Z,32.22
2022-11-08T18:19:39.990Z,32.15
2022-11-08T18:22:06.339Z,32.19
2022-11-08T18:24:32.676Z,32.17
2022-11-08T18:26:59.052Z,32.12
2022-11-08T18:29:25.383Z,32.07
2022-11-08T18:31:51.758Z,32.14
2022-11-08T18:34:18.088Z,32.11
2022-11-08T18:36:44.436Z,32.11
2022-11-08T18:39:12.088Z,32.11
2022-11-08T18:41:37.120Z,32.11
2022-11-08T18:44:03.465Z,32.11
2022-11-08T18:46:29.834Z,32.09
2022-11-08T18:48:56.151Z,32.07
2022-11-08T18:51:22.504Z,32.08
2022-11-08T18:53:48.840Z,32.08
2022-11-08T18:56:15.181Z,32.04
2022-11-08T18:58:41.519Z,32.03
2022-11-08T19:01:07.861Z,32.07
2022-11-08T19:03:34.201Z,32.09
2022-11-08T19:06:00.539Z,32.07
2022-11-08T19:08:26.925Z,32.13
2022-11-08T19:10:53.224Z,32.23
2022-11-08T19:13:19.920Z,32.37
2022-11-08T19:15:46.900Z,32.34
2022-11-08T19:18:12.272Z,32.39
2022-11-08T19:20:38.606Z,32.51
2022-11-08T19:23:04.965Z,32.52
2022-11-08T19:25:31.292Z,32.56
2022-11-08T19:27:57.645Z,32.60
2022-11-08T19:30:23.989Z,32.62
2022-11-08T19:32:50.347Z,32.61
2022-11-08T19:35:16.683Z,32.65
2022-11-08T19:37:43.036Z,32.65
2022-11-08T19:40:09.400Z,32.65
2022-11-08T19:42:35.754Z,32.71
2022-11-08T19:45:02.132Z,32.73
2022-11-08T19:47:28.528Z,32.82
2022-11-08T19:49:54.874Z,32.78
2022-11-08T19:52:21.225Z,32.77
2022-11-08T19:54:47.572Z,32.86
2022-11-08T19:57:13.912Z,32.85
2022-11-08T19:59:40.255Z,33.00
2022-11-08T20:02:06.731Z,32.81
2022-11-08T20:04:32.954Z,32.80
2022-11-08T20:06:59.378Z,32.79
2022-11-08T20:09:30.223Z,32.88
2022-11-08T20:11:52.155Z,32.92
2022-11-08T20:14:18.525Z,32.96
2022-11-08T20:16:49.296Z,32.92
2022-11-08T20:19:11.227Z,32.94
2022-11-08T20:21:37.587Z,33.11
2022-11-08T20:24:03.918Z,32.95
2022-11-08T20:26:30.269Z,32.99
2022-11-08T20:28:57.261Z,32.96
2022-11-08T20:31:23.163Z,33.10
2022-11-08T20:33:49.296Z,32.99
2022-11-08T20:36:15.659Z,32.98
2022-11-08T20:38:43.332Z,33.04
2022-11-08T20:41:08.338Z,33.02
2022-11-08T20:43:34.683Z,33.04
2022-11-08T20:46:01.037Z,33.03
2022-11-08T20:48:28.662Z,33.02
2022-11-08T20:50:53.736Z,33.06
2022-11-08T20:53:20.078Z,33.07
2022-11-08T20:55:46.425Z,33.03
2022-11-08T20:58:12.776Z,33.02
2022-11-08T21:00:57.168Z,33.07
2022-11-08T21:03:05.475Z,33.08
2022-11-08T21:05:31.846Z,33.10
2022-11-08T21:08:08.137Z,33.13
2022-11-08T21:10:42.427Z,33.15
2022-11-08T21:12:50.933Z,33.16
2022-11-08T21:15:17.230Z,33.14
2022-11-08T21:17:43.578Z,33.20
2022-11-08T21:20:09.933Z,33.17
2022-11-08T21:22:36.272Z,33.19
2022-11-08T21:25:02.621Z,33.17
2022-11-08T21:27:30.033Z,33.17
2022-11-08T21:29:55.318Z,33.20
2022-11-08T21:32:21.674Z,33.22
2022-11-08T21:34:48.122Z,33.27
2022-11-08T21:37:14.462Z,33.27
2022-11-08T21:39:40.811Z,33.28
2022-11-08T21:42:07.160Z,33.27
2022-11-08T21:44:33.515Z,33.28
2022-11-08T21:46:59.859Z,33.30
2022-11-08T21:49:26.208Z,33.31
2022-11-08T21:51:52.547Z,33.30
2022-11-08T21:54:18.923Z,33.34
2022-11-08T21:56:45.267Z,33.34
2022-11-08T21:59:11.643Z,33.35
2022-11-08T22:01:37.994Z,33.38
2022-11-08T22:04:04.332Z,33.39
2022-11-08T22:06:30.715Z,33.39
2022-11-08T22:08:57.053Z,33.39
2022-11-08T22:11:23.407Z,33.42
2022-11-08T22:13:49.785Z,33.45
2022-11-08T22:16:16.139Z,33.45
2022-11-08T22:19:03.704Z,33.44
2022-11-08T22:21:08.820Z,33.46
2022-11-08T22:23:35.160Z,33.45
2022-11-08T22:26:01.498Z,33.46
2022-11-08T22:28:27.842Z,33.49
2022-11-08T22:30:54.263Z,33.51
2022-11-08T22:33:20.606Z,33.51
2022-11-08T22:35:46.953Z,33.52
2022-11-08T22:38:13.303Z,33.52
2022-11-08T22:40:39.652Z,33.55
2022-11-08T22:43:05.997Z,33.56
2022-11-08T22:45:32.339Z,33.58
2022-11-08T22:47:58.692Z,33.59
2022-11-08T22:50:25.033Z,33.58
2022-11-08T22:52:51.382Z,33.61
2022-11-08T22:55:17.717Z,33.60
2022-11-08T22:57:44.072Z,33.59
2022-11-08T23:00:10.555Z,33.64
2022-11-08T23:02:36.927Z,33.63
2022-11-08T23:05:03.290Z,33.65
2022-11-08T23:07:29.723Z,33.63
2022-11-08T23:09:56.089Z,33.66
2022-11-08T23:12:22.464Z,33.70
2022-11-08T23:14:48.831Z,33.67
2022-11-08T23:17:15.196Z,33.70
2022-11-08T23:19:41.562Z,33.72
2022-11-08T23:22:07.929Z,33.70
2022-11-08T23:24:34.296Z,33.72
2022-11-08T23:27:00.670Z,33.75
2022-11-08T23:29:27.039Z,33.75
2022-11-08T23:31:53.400Z,33.75
2022-11-08T23:34:19.763Z,33.77
2022-11-08T23:36:46.134Z,33.78
2022-11-08T23:39:12.495Z,33.79
2022-11-08T23:41:38.866Z,33.79
2022-11-08T23:44:05.229Z,33.79
2022-11-08T23:46:31.601Z,33.81
2022-11-08T23:48:57.965Z,33.85
2022-11-08T23:51:24.355Z,33.83
2022-11-08T23:53:50.743Z,33.85
2022-11-08T23:56:17.105Z,33.85
2022-11-08T23:58:43.468Z,33.86
